Hakozaki Maru — JJ3662 — position and weather

sailwx.info

Track history (hours):
 
Tides and Currents Weather Stations Pressure Air Temp Water Temp Dewpoint Dewpoint Depression Visibility Wind Speed Wind Dir Waves Ship Positions

Hakozaki Maru

Last reported at 2015-May-07 01:33 UTC. Time now 2015-May-07 01:37 UTC.
Position N 34°41' E 135°12'.

Length 31 m; draft 2.5 m.

Type: Tug. MMSI: 431000322.

Date/timePositionNaut miles runAvg speedWind from/ knotsBaromVisibWave heightAir tempDewpointWater temp
2015-May-07 01:33N 34°41' E 135°12'0 0.0
2015-May-07 00:33N 34°41' E 135°12'3 3.1
2015-May-06 23:33N 34°42' E 135°16'2 2.0
2015-May-06 22:33N 34°40' E 135°15'3 2.8
2015-May-06 21:33N 34°41' E 135°12'0 0.0
2015-May-06 20:33N 34°41' E 135°12'  
2015-May-04 10:33N 34°41' E 135°15'2 2.2
2015-May-04 09:33N 34°41' E 135°12'0 0.0
2015-May-04 08:33N 34°41' E 135°12'2 2.3
2015-May-04 07:33N 34°41' E 135°15'2 2.3
2015-May-04 06:33N 34°41' E 135°12'0 0.0
2015-May-04 05:33N 34°41' E 135°12'0 0.0
2015-May-04 04:33N 34°41' E 135°12'0 0.0
2015-May-04 03:33N 34°41' E 135°12'0 0.0
2015-May-04 02:33N 34°41' E 135°12'0 0.0
2015-May-04 01:33N 34°41' E 135°12'0 0.5
2015-May-04 00:33N 34°41' E 135°13'2 2.0
2015-May-03 23:33N 34°40' E 135°15'2 2.4
2015-May-03 22:33N 34°41' E 135°12'0 0.0
2015-May-03 21:33N 34°41' E 135°12'0 0.0
2015-May-03 04:34N 34°41' E 135°12'0 0.0
2015-May-03 03:34N 34°41' E 135°12'0 0.0
2015-May-03 02:32N 34°41' E 135°12'0 0.0
2015-May-03 01:34N 34°41' E 135°12'0 0.0
2015-May-03 00:33N 34°41' E 135°12'0 0.0
2015-May-02 23:34N 34°41' E 135°12'2 2.4
2015-May-02 22:33N 34°41' E 135°15'2 1.7
2015-May-02 21:33N 34°41' E 135°13'  
2015-Apr-30 12:20N 34°42' E 135°14'0 0.6
2015-Apr-30 11:33N 34°41' E 135°14'1 1.2
2015-Apr-30 10:33N 34°42' E 135°16'0 0.3
2015-Apr-30 09:33N 34°42' E 135°16'0 0.0
2015-Apr-30 08:33N 34°42' E 135°16'0 0.0
2015-Apr-30 07:33N 34°42' E 135°16'2 2.0
2015-Apr-30 06:33N 34°40' E 135°15'0 0.0
2015-Apr-30 05:33N 34°40' E 135°15'1 1.3
2015-Apr-30 04:33N 34°40' E 135°13'1 1.3
2015-Apr-30 03:33N 34°40' E 135°15'0 0.0
2015-Apr-30 02:33N 34°40' E 135°15'0 0.0
2015-Apr-30 01:33N 34°40' E 135°15'1 1.2
2015-Apr-30 00:33N 34°41' E 135°14'1 1.2
2015-Apr-29 23:33N 34°40' E 135°15'1 1.2
2015-Apr-29 22:33N 34°41' E 135°14'1 1.1
2015-Apr-29 21:33N 34°41' E 135°12'0 0.2
2015-Apr-29 20:33N 34°41' E 135°12'3 0.2
2015-Apr-29 08:34N 34°39' E 135°10'3 2.9
2015-Apr-29 07:33N 34°41' E 135°12'0 0.0
2015-Apr-29 06:33N 34°41' E 135°12'0 0.0
2015-Apr-29 05:33N 34°41' E 135°12'0 0.0
2015-Apr-29 04:33N 34°41' E 135°12'3 2.8
2015-Apr-29 03:33N 34°42' E 135°15'2 2.1
2015-Apr-29 02:33N 34°40' E 135°15'0 0.0
2015-Apr-29 01:33N 34°40' E 135°15'0 0.0
2015-Apr-29 00:33N 34°40' E 135°15'1 1.5
2015-Apr-28 23:33N 34°41' E 135°13'2 1.5
2015-Apr-28 22:33N 34°40' E 135°15'3 2.5
2015-Apr-28 21:33N 34°41' E 135°12'0 0.0
2015-Apr-28 20:33N 34°41' E 135°12'  
Track history (hours):
 
Tides and Currents Weather Stations Pressure Air Temp Water Temp Dewpoint Dewpoint Depression Visibility Wind Speed Wind Dir Waves Ship Positions

Hakozaki Maru

Last reported at 2015-May-07 01:33 UTC. Time now 2015-May-07 01:37 UTC.
Position N 34°41' E 135°12'.

Length 31 m; draft 2.5 m.

Type: Tug. MMSI: 431000322.

Date/timePositionNaut miles runAvg speedWind from/ knotsBaromVisibWave heightAir tempDewpointWater temp
2015-May-07 01:33N 34°41' E 135°12'0 0.0
2015-May-07 00:33N 34°41' E 135°12'3 3.1
2015-May-06 23:33N 34°42' E 135°16'2 2.0
2015-May-06 22:33N 34°40' E 135°15'3 2.8
2015-May-06 21:33N 34°41' E 135°12'0 0.0
2015-May-06 20:33N 34°41' E 135°12'  
2015-May-04 10:33N 34°41' E 135°15'2 2.2
2015-May-04 09:33N 34°41' E 135°12'0 0.0
2015-May-04 08:33N 34°41' E 135°12'2 2.3
2015-May-04 07:33N 34°41' E 135°15'2 2.3
2015-May-04 06:33N 34°41' E 135°12'0 0.0
2015-May-04 05:33N 34°41' E 135°12'0 0.0
2015-May-04 04:33N 34°41' E 135°12'0 0.0
2015-May-04 03:33N 34°41' E 135°12'0 0.0
2015-May-04 02:33N 34°41' E 135°12'0 0.0
2015-May-04 01:33N 34°41' E 135°12'0 0.5
2015-May-04 00:33N 34°41' E 135°13'2 2.0
2015-May-03 23:33N 34°40' E 135°15'2 2.4
2015-May-03 22:33N 34°41' E 135°12'0 0.0
2015-May-03 21:33N 34°41' E 135°12'0 0.0
2015-May-03 04:34N 34°41' E 135°12'0 0.0
2015-May-03 03:34N 34°41' E 135°12'0 0.0
2015-May-03 02:32N 34°41' E 135°12'0 0.0
2015-May-03 01:34N 34°41' E 135°12'0 0.0
2015-May-03 00:33N 34°41' E 135°12'0 0.0
2015-May-02 23:34N 34°41' E 135°12'2 2.4
2015-May-02 22:33N 34°41' E 135°15'2 1.7
2015-May-02 21:33N 34°41' E 135°13'  
2015-Apr-30 12:20N 34°42' E 135°14'0 0.6
2015-Apr-30 11:33N 34°41' E 135°14'1 1.2
2015-Apr-30 10:33N 34°42' E 135°16'0 0.3
2015-Apr-30 09:33N 34°42' E 135°16'0 0.0
2015-Apr-30 08:33N 34°42' E 135°16'0 0.0
2015-Apr-30 07:33N 34°42' E 135°16'2 2.0
2015-Apr-30 06:33N 34°40' E 135°15'0 0.0
2015-Apr-30 05:33N 34°40' E 135°15'1 1.3
2015-Apr-30 04:33N 34°40' E 135°13'1 1.3
2015-Apr-30 03:33N 34°40' E 135°15'0 0.0
2015-Apr-30 02:33N 34°40' E 135°15'0 0.0
2015-Apr-30 01:33N 34°40' E 135°15'1 1.2
2015-Apr-30 00:33N 34°41' E 135°14'1 1.2
2015-Apr-29 23:33N 34°40' E 135°15'1 1.2
2015-Apr-29 22:33N 34°41' E 135°14'1 1.1
2015-Apr-29 21:33N 34°41' E 135°12'0 0.2
2015-Apr-29 20:33N 34°41' E 135°12'3 0.2
2015-Apr-29 08:34N 34°39' E 135°10'3 2.9
2015-Apr-29 07:33N 34°41' E 135°12'0 0.0
2015-Apr-29 06:33N 34°41' E 135°12'0 0.0
2015-Apr-29 05:33N 34°41' E 135°12'0 0.0
2015-Apr-29 04:33N 34°41' E 135°12'3 2.8
2015-Apr-29 03:33N 34°42' E 135°15'2 2.1
2015-Apr-29 02:33N 34°40' E 135°15'0 0.0
2015-Apr-29 01:33N 34°40' E 135°15'0 0.0
2015-Apr-29 00:33N 34°40' E 135°15'1 1.5
2015-Apr-28 23:33N 34°41' E 135°13'2 1.5
2015-Apr-28 22:33N 34°40' E 135°15'3 2.5
2015-Apr-28 21:33N 34°41' E 135°12'0 0.0
2015-Apr-28 20:33N 34°41' E 135°12'  

Dump ship's entire track history